createdAt,value
2023-02-25T00:02:38.029Z,0.88
2023-02-25T00:07:42.282Z,0.88
2023-02-25T00:12:45.780Z,0.85
2023-02-25T00:17:49.809Z,0.90
2023-02-25T00:22:54.085Z,0.70
2023-02-25T00:27:57.210Z,0.90
2023-02-25T00:33:00.166Z,0.75
2023-02-25T00:38:15.641Z,0.73
2023-02-25T00:43:22.095Z,0.75
2023-02-25T00:48:25.768Z,0.90
2023-02-25T00:53:30.205Z,0.75
2023-02-25T00:58:33.188Z,0.70
2023-02-25T01:03:36.016Z,1.02
2023-02-25T01:08:40.377Z,1.23
2023-02-25T01:13:43.953Z,0.80
2023-02-25T01:18:47.286Z,0.70
2023-02-25T01:23:58.903Z,0.60
2023-02-25T01:29:01.897Z,0.70
2023-02-25T01:34:07.474Z,0.60
2023-02-25T01:39:12.656Z,0.40
2023-02-25T01:44:17.779Z,0.70
2023-02-25T01:49:29.174Z,0.68
2023-02-25T01:54:34.585Z,0.50
2023-02-25T01:59:40.111Z,0.63
2023-02-25T02:04:45.036Z,0.55
2023-02-25T02:09:56.809Z,0.68
2023-02-25T02:15:02.009Z,0.63
2023-02-25T02:20:14.080Z,0.57
2023-02-25T02:25:52.741Z,0.50
2023-02-25T02:31:19.856Z,0.65
2023-02-25T02:36:35.974Z,0.70
2023-02-25T02:41:45.504Z,0.85
2023-02-25T02:46:55.655Z,0.93
2023-02-25T02:52:03.036Z,0.65
2023-02-25T02:57:09.777Z,0.73
2023-02-25T03:02:18.261Z,0.70
2023-02-25T03:12:25.339Z,0.98
2023-02-25T03:17:36.823Z,1.00
2023-02-25T03:22:42.475Z,0.73
2023-02-25T03:27:47.361Z,0.80
2023-02-25T03:33:00.969Z,0.70
2023-02-25T03:38:08.745Z,0.90
2023-02-25T03:43:17.580Z,0.90
2023-02-25T03:48:23.572Z,0.80
2023-02-25T03:53:26.598Z,0.90
2023-02-25T03:58:38.414Z,0.88
2023-02-25T04:03:42.733Z,0.70
2023-02-25T04:08:46.326Z,0.85
2023-02-25T04:13:49.066Z,0.90
2023-02-25T04:18:53.815Z,0.70
2023-02-25T04:23:57.012Z,0.73
2023-02-25T04:28:59.951Z,1.33
2023-02-25T04:34:04.192Z,0.85
2023-02-25T04:39:07.045Z,0.85
2023-02-25T04:44:10.203Z,1.13
2023-02-25T04:49:14.519Z,0.98
2023-02-25T04:54:18.416Z,0.82
2023-02-25T04:59:21.185Z,0.85
2023-02-25T05:04:25.317Z,0.80
2023-02-25T05:09:28.147Z,0.57
2023-02-25T05:14:32.926Z,0.80
2023-02-25T05:19:37.200Z,0.85
2023-02-25T05:24:40.061Z,0.80
2023-02-25T05:29:43.247Z,1.00
2023-02-25T05:34:47.423Z,0.65
2023-02-25T05:39:50.180Z,0.73
2023-02-25T05:44:53.198Z,0.80
2023-02-25T05:49:57.387Z,0.70
2023-02-25T05:55:00.654Z,0.80
2023-02-25T06:00:05.825Z,0.75
2023-02-25T06:05:16.457Z,0.75
2023-02-25T06:10:19.332Z,0.95
2023-02-25T06:15:22.045Z,0.50
2023-02-25T06:20:27.896Z,0.88
2023-02-25T06:25:32.166Z,0.77
2023-02-25T06:30:35.026Z,0.80
2023-02-25T06:35:39.384Z,0.80
2023-02-25T06:40:42.278Z,0.75
2023-02-25T06:45:45.884Z,0.82
2023-02-25T06:50:50.586Z,1.33
2023-02-25T06:55:53.325Z,0.90
2023-02-25T07:00:56.177Z,0.82
2023-02-25T07:06:00.378Z,0.98
2023-02-25T07:11:15.375Z,0.85
2023-02-25T07:16:19.072Z,0.90
2023-02-25T07:21:23.933Z,0.75
2023-02-25T07:26:28.286Z,0.85
2023-02-25T07:31:31.251Z,0.80
2023-02-25T07:36:43.809Z,0.80
2023-02-25T07:41:46.668Z,0.77
2023-02-25T07:46:49.393Z,0.73
2023-02-25T08:11:08.370Z,0.98
2023-02-25T08:16:13.288Z,0.80
2023-02-25T08:21:18.991Z,0.98
2023-02-25T08:26:24.349Z,0.70
2023-02-25T08:31:28.051Z,0.80
2023-02-25T08:36:32.392Z,0.90
2023-02-25T08:41:36.883Z,0.63
2023-02-25T08:46:40.395Z,0.70
2023-02-25T08:51:43.234Z,0.65
2023-02-25T08:56:47.404Z,1.00
2023-02-25T09:01:52.137Z,0.80
2023-02-25T09:06:55.144Z,0.75
2023-02-25T09:11:59.325Z,0.68
2023-02-25T09:17:03.989Z,0.90
2023-02-25T09:22:07.650Z,1.55
2023-02-25T09:27:12.708Z,0.68
2023-02-25T09:32:19.674Z,0.80
2023-02-25T09:37:22.615Z,0.82
2023-02-25T09:42:33.235Z,0.80
2023-02-25T09:47:43.980Z,1.23
2023-02-25T09:52:52.061Z,0.70
2023-02-25T09:58:02.900Z,0.80
2023-02-25T10:03:12.844Z,0.80
2023-02-25T10:08:23.071Z,0.60
2023-02-25T10:13:40.915Z,0.60
2023-02-25T10:19:01.600Z,1.20
2023-02-25T10:24:28.207Z,0.80
2023-02-25T10:29:39.696Z,0.95
2023-02-25T10:34:42.798Z,0.60
2023-02-25T10:39:48.661Z,1.00
2023-02-25T10:44:54.030Z,0.85
2023-02-25T10:50:42.793Z,0.70
2023-02-25T10:55:51.725Z,0.82
2023-02-25T11:01:00.099Z,1.13
2023-02-25T11:06:12.479Z,0.70
2023-02-25T11:11:18.418Z,0.65
2023-02-25T11:16:24.641Z,0.90
2023-02-25T11:21:37.388Z,0.60
2023-02-25T11:26:43.953Z,0.60
2023-02-25T11:31:50.997Z,0.57
2023-02-25T11:36:53.999Z,0.80
2023-02-25T11:41:58.707Z,0.88
2023-02-25T11:47:10.826Z,0.93
2023-02-25T11:52:22.146Z,0.80
2023-02-25T11:57:36.100Z,0.70
2023-02-25T12:02:48.792Z,0.93
2023-02-25T12:08:13.479Z,0.77
2023-02-25T12:13:56.010Z,0.90
2023-02-25T12:19:26.024Z,1.02
2023-02-25T12:24:49.589Z,1.27
2023-02-25T12:30:09.896Z,0.90
2023-02-25T12:35:43.256Z,1.23
2023-02-25T12:41:18.465Z,0.80
2023-02-25T12:46:46.331Z,1.25
2023-02-25T12:52:11.369Z,1.00
2023-02-25T12:57:33.029Z,1.15
2023-02-25T13:02:58.747Z,1.20
2023-02-25T13:08:32.579Z,1.65
2023-02-25T13:14:05.915Z,1.17
2023-02-25T13:19:27.972Z,1.02
2023-02-25T13:24:45.887Z,1.30
2023-02-25T13:30:05.707Z,1.37
2023-02-25T13:35:26.322Z,1.15
2023-02-25T13:40:44.993Z,1.45
2023-02-25T13:46:00.521Z,1.30
2023-02-25T13:51:28.136Z,1.20
2023-02-25T13:56:44.877Z,1.13
2023-02-25T14:02:03.118Z,1.00
2023-02-25T14:07:23.085Z,1.08
2023-02-25T14:12:45.138Z,0.98
2023-02-25T14:18:04.726Z,0.80
2023-02-25T14:23:17.405Z,1.20
2023-02-25T14:28:32.108Z,1.65
2023-02-25T14:34:05.564Z,1.35
2023-02-25T14:39:23.815Z,0.88
2023-02-25T14:44:35.300Z,0.82
2023-02-25T14:49:43.018Z,0.70
2023-02-25T14:55:21.937Z,0.87
2023-02-25T15:01:01.113Z,0.90
2023-02-25T15:06:17.608Z,2.25
2023-02-25T15:11:43.991Z,1.15
2023-02-25T15:17:28.643Z,1.10
2023-02-25T15:22:32.724Z,1.08
2023-02-25T15:27:56.786Z,0.77
2023-02-25T15:33:24.805Z,1.20
2023-02-25T15:38:44.095Z,1.30
2023-02-25T15:43:47.299Z,3.42
2023-02-25T15:49:05.663Z,1.80
2023-02-25T15:54:09.777Z,1.25
2023-02-25T15:59:13.149Z,1.38
2023-02-25T16:04:50.453Z,1.30
2023-02-25T16:09:57.972Z,1.35
2023-02-25T16:15:01.981Z,1.83
2023-02-25T16:20:18.037Z,1.33
2023-02-25T16:25:29.503Z,1.98
2023-02-25T16:30:41.422Z,1.33
2023-02-25T16:35:55.399Z,1.63
2023-02-25T16:41:03.122Z,1.38
2023-02-25T16:46:10.547Z,1.80
2023-02-25T16:51:24.211Z,1.70
2023-02-25T16:56:31.884Z,1.33
2023-02-25T17:01:37.875Z,2.28
2023-02-25T17:06:42.832Z,2.58
2023-02-25T17:11:57.029Z,1.92
2023-02-25T17:17:00.492Z,2.20
2023-02-25T17:22:05.409Z,0.98
2023-02-25T17:27:12.320Z,1.20
2023-02-25T17:32:22.035Z,1.23
2023-02-25T17:37:29.356Z,1.33
2023-02-25T17:42:35.462Z,1.63
2023-02-25T17:47:38.728Z,2.10
2023-02-25T17:52:49.022Z,3.55
2023-02-25T17:57:54.935Z,2.10
2023-02-25T18:03:17.892Z,1.90
2023-02-25T18:08:23.840Z,2.10
2023-02-25T18:13:33.726Z,1.70
2023-02-25T18:18:37.252Z,4.13
2023-02-25T18:23:41.527Z,1.20
2023-02-25T18:28:45.612Z,1.95
2023-02-25T18:33:48.720Z,2.70
2023-02-25T18:38:54.645Z,1.70
2023-02-25T18:43:57.376Z,1.42
2023-02-25T18:49:00.418Z,2.08
2023-02-25T18:54:04.876Z,2.55
2023-02-25T18:59:07.671Z,1.90
2023-02-25T19:04:17.255Z,2.65
2023-02-25T19:09:22.901Z,2.63
2023-02-25T19:14:44.895Z,2.08
2023-02-25T19:19:54.780Z,2.33
2023-02-25T19:25:05.729Z,2.50
2023-02-25T19:41:46.547Z,1.65
2023-02-25T19:52:15.668Z,1.20
2023-02-25T19:58:12.174Z,1.55
2023-02-25T20:03:59.478Z,1.55
2023-02-25T20:15:32.246Z,1.20
2023-02-25T20:20:37.084Z,1.05
2023-02-25T20:25:39.910Z,1.50
2023-02-25T21:53:33.674Z,1.30
2023-02-25T22:04:46.140Z,1.75
2023-02-25T22:09:50.375Z,2.25
2023-02-25T22:14:53.149Z,1.65
2023-02-25T22:19:55.865Z,1.35
2023-02-25T22:25:00.476Z,1.30
2023-02-25T22:30:03.357Z,1.38
2023-02-25T22:35:07.626Z,1.15
2023-02-25T22:40:13.370Z,1.10
2023-02-25T22:45:16.338Z,1.17
2023-02-25T22:50:19.224Z,1.30
2023-02-25T22:55:23.480Z,1.90
2023-02-25T23:00:26.363Z,1.23
2023-02-25T23:05:29.113Z,1.30
2023-02-25T23:10:35.983Z,1.20
2023-02-25T23:15:41.794Z,1.10
2023-02-25T23:20:47.402Z,1.08
2023-02-25T23:25:54.426Z,1.33
2023-02-25T23:30:57.214Z,1.15
2023-02-25T23:36:01.065Z,1.20
2023-02-25T23:41:05.420Z,1.30
2023-02-25T23:46:08.466Z,1.10
2023-02-25T23:51:11.224Z,1.10
2023-02-25T23:56:18.582Z,1.13
